sensor_id;sensor_type;location;lat;lon;timestamp;temperature;humidity
42877;DHT22;42341;40.498;72.818;2023-02-28T00:00:27;6.20;98.70
42877;DHT22;42341;40.498;72.818;2023-02-28T00:02:54;6.30;98.50
42877;DHT22;42341;40.498;72.818;2023-02-28T00:05:22;6.30;98.40
42877;DHT22;42341;40.498;72.818;2023-02-28T00:07:49;6.30;98.40
42877;DHT22;42341;40.498;72.818;2023-02-28T00:10:20;6.30;98.40
42877;DHT22;42341;40.498;72.818;2023-02-28T00:12:51;6.30;98.50
42877;DHT22;42341;40.498;72.818;2023-02-28T00:15:18;6.30;98.20
42877;DHT22;42341;40.498;72.818;2023-02-28T00:17:44;6.20;98.10
42877;DHT22;42341;40.498;72.818;2023-02-28T00:20:11;6.10;98.40
42877;DHT22;42341;40.498;72.818;2023-02-28T00:22:39;6.20;98.60
42877;DHT22;42341;40.498;72.818;2023-02-28T00:25:06;6.40;98.50
42877;DHT22;42341;40.498;72.818;2023-02-28T00:27:33;6.40;98.40
42877;DHT22;42341;40.498;72.818;2023-02-28T00:30:00;6.50;98.50
42877;DHT22;42341;40.498;72.818;2023-02-28T00:32:26;6.50;98.00
42877;DHT22;42341;40.498;72.818;2023-02-28T00:34:52;6.40;97.70
42877;DHT22;42341;40.498;72.818;2023-02-28T00:37:18;6.40;97.80
42877;DHT22;42341;40.498;72.818;2023-02-28T00:39:44;6.40;97.80
42877;DHT22;42341;40.498;72.818;2023-02-28T00:42:10;6.30;97.50
42877;DHT22;42341;40.498;72.818;2023-02-28T00:44:36;6.40;97.70
42877;DHT22;42341;40.498;72.818;2023-02-28T00:47:02;6.30;97.50
42877;DHT22;42341;40.498;72.818;2023-02-28T00:49:28;6.30;97.80
42877;DHT22;42341;40.498;72.818;2023-02-28T00:51:55;6.30;97.60
42877;DHT22;42341;40.498;72.818;2023-02-28T00:54:22;6.30;97.70
42877;DHT22;42341;40.498;72.818;2023-02-28T00:56:48;6.40;97.70
42877;DHT22;42341;40.498;72.818;2023-02-28T00:59:16;6.50;97.40
42877;DHT22;42341;40.498;72.818;2023-02-28T01:01:42;6.50;97.20
42877;DHT22;42341;40.498;72.818;2023-02-28T01:04:09;6.50;97.40
42877;DHT22;42341;40.498;72.818;2023-02-28T01:06:35;6.50;97.00
42877;DHT22;42341;40.498;72.818;2023-02-28T01:09:02;6.50;96.90
42877;DHT22;42341;40.498;72.818;2023-02-28T01:11:28;6.50;96.80
42877;DHT22;42341;40.498;72.818;2023-02-28T01:13:54;6.50;96.80
42877;DHT22;42341;40.498;72.818;2023-02-28T01:16:20;6.50;96.70
42877;DHT22;42341;40.498;72.818;2023-02-28T01:18:46;6.60;96.40
42877;DHT22;42341;40.498;72.818;2023-02-28T01:21:14;6.40;96.30
42877;DHT22;42341;40.498;72.818;2023-02-28T01:23:41;6.40;95.70
42877;DHT22;42341;40.498;72.818;2023-02-28T01:26:09;6.30;96.00
42877;DHT22;42341;40.498;72.818;2023-02-28T01:28:36;6.20;95.90
42877;DHT22;42341;40.498;72.818;2023-02-28T01:31:03;6.20;96.10
42877;DHT22;42341;40.498;72.818;2023-02-28T01:33:29;6.20;95.80
42877;DHT22;42341;40.498;72.818;2023-02-28T01:36:03;6.20;95.90
42877;DHT22;42341;40.498;72.818;2023-02-28T01:38:29;6.10;95.90
42877;DHT22;42341;40.498;72.818;2023-02-28T01:40:55;6.10;95.60
42877;DHT22;42341;40.498;72.818;2023-02-28T01:43:30;6.10;95.90
42877;DHT22;42341;40.498;72.818;2023-02-28T01:45:58;6.10;95.80
42877;DHT22;42341;40.498;72.818;2023-02-28T01:48:33;6.10;95.60
42877;DHT22;42341;40.498;72.818;2023-02-28T01:51:05;6.10;95.40
42877;DHT22;42341;40.498;72.818;2023-02-28T01:53:36;6.10;95.50
42877;DHT22;42341;40.498;72.818;2023-02-28T01:56:06;6.10;95.50
42877;DHT22;42341;40.498;72.818;2023-02-28T01:58:33;6.00;95.20
42877;DHT22;42341;40.498;72.818;2023-02-28T02:00:59;6.00;95.40
42877;DHT22;42341;40.498;72.818;2023-02-28T02:03:25;6.10;95.40
42877;DHT22;42341;40.498;72.818;2023-02-28T02:05:51;6.10;95.50
42877;DHT22;42341;40.498;72.818;2023-02-28T02:08:28;6.10;95.40
42877;DHT22;42341;40.498;72.818;2023-02-28T02:11:00;6.10;95.40
42877;DHT22;42341;40.498;72.818;2023-02-28T02:14:01;6.10;95.00
42877;DHT22;42341;40.498;72.818;2023-02-28T02:26:01;6.40;94.60
42877;DHT22;42341;40.498;72.818;2023-02-28T02:34:09;6.70;93.70
42877;DHT22;42341;40.498;72.818;2023-02-28T02:39:27;6.80;93.40
42877;DHT22;42341;40.498;72.818;2023-02-28T02:42:00;6.90;93.40
42877;DHT22;42341;40.498;72.818;2023-02-28T02:44:34;7.00;93.30
42877;DHT22;42341;40.498;72.818;2023-02-28T02:47:08;7.10;93.30
42877;DHT22;42341;40.498;72.818;2023-02-28T02:49:37;7.10;92.90
42877;DHT22;42341;40.498;72.818;2023-02-28T02:52:07;7.10;92.90
42877;DHT22;42341;40.498;72.818;2023-02-28T02:54:41;7.10;92.80
42877;DHT22;42341;40.498;72.818;2023-02-28T02:57:21;6.90;93.20
42877;DHT22;42341;40.498;72.818;2023-02-28T02:59:48;6.90;93.00
42877;DHT22;42341;40.498;72.818;2023-02-28T03:02:16;7.00;93.20
42877;DHT22;42341;40.498;72.818;2023-02-28T03:04:51;7.30;92.70
42877;DHT22;42341;40.498;72.818;2023-02-28T03:07:18;7.50;92.30
42877;DHT22;42341;40.498;72.818;2023-02-28T03:09:55;7.70;91.70
42877;DHT22;42341;40.498;72.818;2023-02-28T03:12:26;8.00;91.50
42877;DHT22;42341;40.498;72.818;2023-02-28T03:15:31;8.40;91.30
42877;DHT22;42341;40.498;72.818;2023-02-28T03:18:08;8.80;90.40
42877;DHT22;42341;40.498;72.818;2023-02-28T03:23:28;9.20;88.30
42877;DHT22;42341;40.498;72.818;2023-02-28T03:26:06;9.40;87.80
42877;DHT22;42341;40.498;72.818;2023-02-28T03:28:41;9.80;86.90
42877;DHT22;42341;40.498;72.818;2023-02-28T03:31:18;10.10;86.10
42877;DHT22;42341;40.498;72.818;2023-02-28T03:33:51;10.40;84.00
42877;DHT22;42341;40.498;72.818;2023-02-28T03:36:26;10.80;82.90
42877;DHT22;42341;40.498;72.818;2023-02-28T03:39:02;11.00;82.00
42877;DHT22;42341;40.498;72.818;2023-02-28T03:41:35;11.10;80.60
42877;DHT22;42341;40.498;72.818;2023-02-28T03:44:30;11.60;80.10
42877;DHT22;42341;40.498;72.818;2023-02-28T03:47:07;12.10;77.90
42877;DHT22;42341;40.498;72.818;2023-02-28T03:49:43;12.20;76.50
42877;DHT22;42341;40.498;72.818;2023-02-28T03:52:11;12.30;74.30
42877;DHT22;42341;40.498;72.818;2023-02-28T03:54:48;12.70;73.60
42877;DHT22;42341;40.498;72.818;2023-02-28T04:00:40;13.50;72.70
42877;DHT22;42341;40.498;72.818;2023-02-28T04:02:59;14.10;70.50
42877;DHT22;42341;40.498;72.818;2023-02-28T04:05:25;14.40;67.00
42877;DHT22;42341;40.498;72.818;2023-02-28T04:07:52;14.60;66.30
42877;DHT22;42341;40.498;72.818;2023-02-28T04:10:19;14.90;65.70
42877;DHT22;42341;40.498;72.818;2023-02-28T04:12:45;15.20;66.40
42877;DHT22;42341;40.498;72.818;2023-02-28T04:15:11;15.80;65.00
42877;DHT22;42341;40.498;72.818;2023-02-28T04:17:37;16.40;63.10
42877;DHT22;42341;40.498;72.818;2023-02-28T04:20:04;16.60;59.90
42877;DHT22;42341;40.498;72.818;2023-02-28T04:22:35;16.80;59.70
42877;DHT22;42341;40.498;72.818;2023-02-28T04:25:02;17.30;58.40
42877;DHT22;42341;40.498;72.818;2023-02-28T04:27:28;17.50;55.40
42877;DHT22;42341;40.498;72.818;2023-02-28T04:29:54;18.10;56.20
42877;DHT22;42341;40.498;72.818;2023-02-28T04:32:20;18.60;55.10
42877;DHT22;42341;40.498;72.818;2023-02-28T04:34:46;19.20;53.60
42877;DHT22;42341;40.498;72.818;2023-02-28T04:37:12;19.90;54.30
42877;DHT22;42341;40.498;72.818;2023-02-28T04:39:38;20.70;54.00
42877;DHT22;42341;40.498;72.818;2023-02-28T04:42:04;21.20;52.50
42877;DHT22;42341;40.498;72.818;2023-02-28T04:44:30;21.70;52.50
42877;DHT22;42341;40.498;72.818;2023-02-28T04:46:57;21.90;51.00
42877;DHT22;42341;40.498;72.818;2023-02-28T04:49:23;23.00;51.40
42877;DHT22;42341;40.498;72.818;2023-02-28T04:51:49;23.70;49.60
42877;DHT22;42341;40.498;72.818;2023-02-28T04:54:15;24.40;49.80
42877;DHT22;42341;40.498;72.818;2023-02-28T04:56:41;25.10;48.30
42877;DHT22;42341;40.498;72.818;2023-02-28T04:59:07;24.90;48.80
42877;DHT22;42341;40.498;72.818;2023-02-28T05:01:34;24.80;46.60
42877;DHT22;42341;40.498;72.818;2023-02-28T05:04:03;25.50;47.60
42877;DHT22;42341;40.498;72.818;2023-02-28T05:06:32;26.00;45.30
42877;DHT22;42341;40.498;72.818;2023-02-28T05:08:59;26.60;45.30
42877;DHT22;42341;40.498;72.818;2023-02-28T05:11:26;26.50;44.40
42877;DHT22;42341;40.498;72.818;2023-02-28T05:13:53;27.30;44.10
42877;DHT22;42341;40.498;72.818;2023-02-28T05:16:19;27.70;44.40
42877;DHT22;42341;40.498;72.818;2023-02-28T05:18:46;27.80;42.60
42877;DHT22;42341;40.498;72.818;2023-02-28T05:23:52;28.60;42.20
42877;DHT22;42341;40.498;72.818;2023-02-28T05:26:19;28.40;41.60
42877;DHT22;42341;40.498;72.818;2023-02-28T05:28:45;28.60;42.80
42877;DHT22;42341;40.498;72.818;2023-02-28T05:31:12;29.50;41.30
42877;DHT22;42341;40.498;72.818;2023-02-28T05:33:38;29.70;41.00
42877;DHT22;42341;40.498;72.818;2023-02-28T05:36:04;29.30;38.90
42877;DHT22;42341;40.498;72.818;2023-02-28T05:38:30;29.50;39.90
42877;DHT22;42341;40.498;72.818;2023-02-28T05:40:56;29.50;38.40
42877;DHT22;42341;40.498;72.818;2023-02-28T05:43:22;29.80;39.20
42877;DHT22;42341;40.498;72.818;2023-02-28T05:45:48;29.70;39.70
42877;DHT22;42341;40.498;72.818;2023-02-28T05:48:14;29.10;39.50
42877;DHT22;42341;40.498;72.818;2023-02-28T05:50:40;29.80;40.10
42877;DHT22;42341;40.498;72.818;2023-02-28T05:53:08;30.10;39.50
42877;DHT22;42341;40.498;72.818;2023-02-28T05:55:34;30.40;39.20
42877;DHT22;42341;40.498;72.818;2023-02-28T05:58:01;30.60;39.40
42877;DHT22;42341;40.498;72.818;2023-02-28T06:00:27;30.90;39.60
42877;DHT22;42341;40.498;72.818;2023-02-28T06:02:53;30.60;39.50
42877;DHT22;42341;40.498;72.818;2023-02-28T06:05:22;30.60;39.80
42877;DHT22;42341;40.498;72.818;2023-02-28T06:07:48;30.90;40.40
42877;DHT22;42341;40.498;72.818;2023-02-28T06:10:14;30.80;40.80
42877;DHT22;42341;40.498;72.818;2023-02-28T06:12:41;31.20;41.30
42877;DHT22;42341;40.498;72.818;2023-02-28T06:15:16;30.50;41.20
42877;DHT22;42341;40.498;72.818;2023-02-28T06:17:43;30.20;41.50
42877;DHT22;42341;40.498;72.818;2023-02-28T06:20:11;30.70;40.90
42877;DHT22;42341;40.498;72.818;2023-02-28T06:22:39;30.10;41.40
42877;DHT22;42341;40.498;72.818;2023-02-28T06:25:06;30.10;41.70
42877;DHT22;42341;40.498;72.818;2023-02-28T06:27:33;29.80;42.10
42877;DHT22;42341;40.498;72.818;2023-02-28T06:29:59;30.20;41.70
42877;DHT22;42341;40.498;72.818;2023-02-28T06:32:25;30.20;41.60
42877;DHT22;42341;40.498;72.818;2023-02-28T06:34:51;30.10;41.60
42877;DHT22;42341;40.498;72.818;2023-02-28T06:37:18;30.30;42.30
42877;DHT22;42341;40.498;72.818;2023-02-28T06:39:44;30.20;41.70
42877;DHT22;42341;40.498;72.818;2023-02-28T06:42:10;30.30;42.40
42877;DHT22;42341;40.498;72.818;2023-02-28T07:00:19;27.30;43.20
42877;DHT22;42341;40.498;72.818;2023-02-28T07:02:45;29.20;45.00
42877;DHT22;42341;40.498;72.818;2023-02-28T07:05:13;28.20;44.60
42877;DHT22;42341;40.498;72.818;2023-02-28T07:07:39;27.30;45.70
42877;DHT22;42341;40.498;72.818;2023-02-28T07:10:10;26.50;45.70
42877;DHT22;42341;40.498;72.818;2023-02-28T07:12:37;25.60;46.10
42877;DHT22;42341;40.498;72.818;2023-02-28T07:15:05;25.20;46.70
42877;DHT22;42341;40.498;72.818;2023-02-28T07:17:31;23.50;48.60
42877;DHT22;42341;40.498;72.818;2023-02-28T07:19:57;23.60;49.10
42877;DHT22;42341;40.498;72.818;2023-02-28T07:22:23;24.20;48.50
42877;DHT22;42341;40.498;72.818;2023-02-28T07:24:50;25.20;47.30
42877;DHT22;42341;40.498;72.818;2023-02-28T07:27:17;25.50;46.60
42877;DHT22;42341;40.498;72.818;2023-02-28T07:29:52;25.70;46.30
42877;DHT22;42341;40.498;72.818;2023-02-28T07:32:19;26.30;45.90
42877;DHT22;42341;40.498;72.818;2023-02-28T07:34:45;25.60;46.30
42877;DHT22;42341;40.498;72.818;2023-02-28T07:37:11;23.80;48.00
42877;DHT22;42341;40.498;72.818;2023-02-28T07:39:37;22.10;50.40
42877;DHT22;42341;40.498;72.818;2023-02-28T07:42:06;21.20;51.80
42877;DHT22;42341;40.498;72.818;2023-02-28T07:44:36;20.50;52.70
42877;DHT22;42341;40.498;72.818;2023-02-28T07:47:09;20.10;53.60
42877;DHT22;42341;40.498;72.818;2023-02-28T07:49:38;19.80;54.70
42877;DHT22;42341;40.498;72.818;2023-02-28T07:52:06;19.50;55.30
42877;DHT22;42341;40.498;72.818;2023-02-28T07:54:33;19.10;55.10
42877;DHT22;42341;40.498;72.818;2023-02-28T07:56:59;19.30;55.40
42877;DHT22;42341;40.498;72.818;2023-02-28T07:59:25;19.20;56.70
42877;DHT22;42341;40.498;72.818;2023-02-28T08:01:51;19.00;55.60
42877;DHT22;42341;40.498;72.818;2023-02-28T08:04:18;19.00;56.50
42877;DHT22;42341;40.498;72.818;2023-02-28T08:06:44;18.60;56.40
42877;DHT22;42341;40.498;72.818;2023-02-28T08:09:10;18.70;56.20
42877;DHT22;42341;40.498;72.818;2023-02-28T08:11:37;18.50;56.80
42877;DHT22;42341;40.498;72.818;2023-02-28T08:14:03;18.40;56.50
42877;DHT22;42341;40.498;72.818;2023-02-28T08:16:29;18.20;58.20
42877;DHT22;42341;40.498;72.818;2023-02-28T08:18:55;18.00;59.40
42877;DHT22;42341;40.498;72.818;2023-02-28T08:21:21;17.70;60.10
42877;DHT22;42341;40.498;72.818;2023-02-28T08:23:50;17.60;60.20
42877;DHT22;42341;40.498;72.818;2023-02-28T08:26:17;17.40;60.60
42877;DHT22;42341;40.498;72.818;2023-02-28T08:28:44;17.10;61.00
42877;DHT22;42341;40.498;72.818;2023-02-28T08:31:12;17.20;61.70
42877;DHT22;42341;40.498;72.818;2023-02-28T08:33:39;17.00;61.10
42877;DHT22;42341;40.498;72.818;2023-02-28T08:36:07;17.10;61.70
42877;DHT22;42341;40.498;72.818;2023-02-28T08:38:33;17.20;61.90
42877;DHT22;42341;40.498;72.818;2023-02-28T08:41:01;17.10;61.60
42877;DHT22;42341;40.498;72.818;2023-02-28T08:43:28;17.00;61.80
42877;DHT22;42341;40.498;72.818;2023-02-28T08:45:57;17.00;63.20
42877;DHT22;42341;40.498;72.818;2023-02-28T08:48:27;16.60;62.90
42877;DHT22;42341;40.498;72.818;2023-02-28T08:50:59;16.50;63.50
42877;DHT22;42341;40.498;72.818;2023-02-28T08:53:25;16.40;63.60
42877;DHT22;42341;40.498;72.818;2023-02-28T08:56:02;16.40;63.70
42877;DHT22;42341;40.498;72.818;2023-02-28T08:58:28;16.50;64.10
42877;DHT22;42341;40.498;72.818;2023-02-28T09:00:55;16.40;63.40
42877;DHT22;42341;40.498;72.818;2023-02-28T09:03:21;16.30;64.10
42877;DHT22;42341;40.498;72.818;2023-02-28T09:06:00;16.20;63.60
42877;DHT22;42341;40.498;72.818;2023-02-28T09:08:28;16.20;63.60
42877;DHT22;42341;40.498;72.818;2023-02-28T09:10:54;16.10;63.20
42877;DHT22;42341;40.498;72.818;2023-02-28T09:13:22;16.20;63.90
42877;DHT22;42341;40.498;72.818;2023-02-28T09:15:48;16.20;63.10
42877;DHT22;42341;40.498;72.818;2023-02-28T09:18:15;16.10;62.90
42877;DHT22;42341;40.498;72.818;2023-02-28T09:20:41;16.20;63.10
42877;DHT22;42341;40.498;72.818;2023-02-28T09:23:08;16.10;62.70
42877;DHT22;42341;40.498;72.818;2023-02-28T09:25:35;16.10;63.20
42877;DHT22;42341;40.498;72.818;2023-02-28T09:28:01;16.30;62.90
42877;DHT22;42341;40.498;72.818;2023-02-28T09:30:27;16.50;63.10
42877;DHT22;42341;40.498;72.818;2023-02-28T09:32:53;16.50;63.90
42877;DHT22;42341;40.498;72.818;2023-02-28T09:35:21;16.50;63.10
42877;DHT22;42341;40.498;72.818;2023-02-28T09:37:51;16.50;63.70
42877;DHT22;42341;40.498;72.818;2023-02-28T09:40:19;16.30;64.20
42877;DHT22;42341;40.498;72.818;2023-02-28T09:42:47;16.10;64.40
42877;DHT22;42341;40.498;72.818;2023-02-28T09:47:47;15.90;65.20
42877;DHT22;42341;40.498;72.818;2023-02-28T09:52:53;15.80;65.60
42877;DHT22;42341;40.498;72.818;2023-02-28T09:55:22;16.00;65.30
42877;DHT22;42341;40.498;72.818;2023-02-28T09:57:51;16.00;65.70
42877;DHT22;42341;40.498;72.818;2023-02-28T10:00:22;15.90;65.90
42877;DHT22;42341;40.498;72.818;2023-02-28T10:05:49;15.70;66.10
42877;DHT22;42341;40.498;72.818;2023-02-28T10:08:42;15.40;67.00
42877;DHT22;42341;40.498;72.818;2023-02-28T10:11:14;15.10;68.30
42877;DHT22;42341;40.498;72.818;2023-02-28T10:13:56;15.00;67.80
42877;DHT22;42341;40.498;72.818;2023-02-28T10:16:40;15.20;67.50
42877;DHT22;42341;40.498;72.818;2023-02-28T10:19:48;15.00;67.50
42877;DHT22;42341;40.498;72.818;2023-02-28T10:25:20;15.10;67.80
42877;DHT22;42341;40.498;72.818;2023-02-28T10:27:47;15.10;67.90
42877;DHT22;42341;40.498;72.818;2023-02-28T10:30:13;15.30;67.90
42877;DHT22;42341;40.498;72.818;2023-02-28T10:32:40;15.40;68.10
42877;DHT22;42341;40.498;72.818;2023-02-28T10:35:16;15.20;68.50
42877;DHT22;42341;40.498;72.818;2023-02-28T10:37:47;15.10;68.80
42877;DHT22;42341;40.498;72.818;2023-02-28T10:45:54;15.10;69.40
42877;DHT22;42341;40.498;72.818;2023-02-28T10:53:32;14.90;69.20
42877;DHT22;42341;40.498;72.818;2023-02-28T10:56:12;14.70;69.50
42877;DHT22;42341;40.498;72.818;2023-02-28T11:03:58;14.50;70.50
42877;DHT22;42341;40.498;72.818;2023-02-28T11:06:33;14.50;71.40
42877;DHT22;42341;40.498;72.818;2023-02-28T11:09:02;14.40;70.50
42877;DHT22;42341;40.498;72.818;2023-02-28T11:11:31;14.40;71.20
42877;DHT22;42341;40.498;72.818;2023-02-28T11:14:19;14.50;70.80
42877;DHT22;42341;40.498;72.818;2023-02-28T11:16:46;14.40;71.10
42877;DHT22;42341;40.498;72.818;2023-02-28T11:19:22;14.40;71.20
42877;DHT22;42341;40.498;72.818;2023-02-28T11:21:58;14.40;70.90
42877;DHT22;42341;40.498;72.818;2023-02-28T11:24:33;14.30;71.90
42877;DHT22;42341;40.498;72.818;2023-02-28T11:27:01;14.20;71.90
42877;DHT22;42341;40.498;72.818;2023-02-28T11:29:30;14.10;72.00
42877;DHT22;42341;40.498;72.818;2023-02-28T11:34:32;14.10;73.50
42877;DHT22;42341;40.498;72.818;2023-02-28T11:36:59;14.00;73.90
42877;DHT22;42341;40.498;72.818;2023-02-28T11:39:26;13.90;74.60
42877;DHT22;42341;40.498;72.818;2023-02-28T11:56:09;13.60;77.90
42877;DHT22;42341;40.498;72.818;2023-02-28T12:07:34;13.20;80.00
42877;DHT22;42341;40.498;72.818;2023-02-28T12:10:24;13.30;80.20
42877;DHT22;42341;40.498;72.818;2023-02-28T12:13:16;13.20;80.60
42877;DHT22;42341;40.498;72.818;2023-02-28T12:24:37;13.20;81.00
42877;DHT22;42341;40.498;72.818;2023-02-28T12:27:09;13.00;81.20
42877;DHT22;42341;40.498;72.818;2023-02-28T12:29:56;12.90;82.20
42877;DHT22;42341;40.498;72.818;2023-02-28T12:35:17;12.70;83.10
42877;DHT22;42341;40.498;72.818;2023-02-28T12:38:25;12.80;83.40
42877;DHT22;42341;40.498;72.818;2023-02-28T12:41:09;12.80;83.40
42877;DHT22;42341;40.498;72.818;2023-02-28T12:43:46;12.90;83.20
42877;DHT22;42341;40.498;72.818;2023-02-28T12:46:24;12.90;83.90
42877;DHT22;42341;40.498;72.818;2023-02-28T12:48:55;12.90;83.30
42877;DHT22;42341;40.498;72.818;2023-02-28T12:51:23;12.80;83.30
42877;DHT22;42341;40.498;72.818;2023-02-28T12:59:42;12.90;84.20
42877;DHT22;42341;40.498;72.818;2023-02-28T13:10:45;13.00;84.00
42877;DHT22;42341;40.498;72.818;2023-02-28T13:13:25;12.90;84.60
42877;DHT22;42341;40.498;72.818;2023-02-28T13:16:09;12.60;85.10
42877;DHT22;42341;40.498;72.818;2023-02-28T13:18:39;12.70;85.20
42877;DHT22;42341;40.498;72.818;2023-02-28T13:21:21;12.60;85.80
42877;DHT22;42341;40.498;72.818;2023-02-28T13:34:40;12.40;86.50
42877;DHT22;42341;40.498;72.818;2023-02-28T13:42:34;12.30;86.30
42877;DHT22;42341;40.498;72.818;2023-02-28T13:47:39;12.20;86.90
42877;DHT22;42341;40.498;72.818;2023-02-28T13:58:38;11.90;88.20
42877;DHT22;42341;40.498;72.818;2023-02-28T14:06:50;11.70;88.50
42877;DHT22;42341;40.498;72.818;2023-02-28T14:09:36;11.70;88.70
42877;DHT22;42341;40.498;72.818;2023-02-28T14:18:20;11.70;89.00
42877;DHT22;42341;40.498;72.818;2023-02-28T14:20:48;11.60;89.40
42877;DHT22;42341;40.498;72.818;2023-02-28T14:23:26;11.50;89.80
42877;DHT22;42341;40.498;72.818;2023-02-28T14:29:08;11.50;89.50
42877;DHT22;42341;40.498;72.818;2023-02-28T14:32:11;11.50;89.70
42877;DHT22;42341;40.498;72.818;2023-02-28T14:37:15;11.30;90.40
42877;DHT22;42341;40.498;72.818;2023-02-28T14:39:44;11.20;90.50
42877;DHT22;42341;40.498;72.818;2023-02-28T14:42:31;11.20;90.60
42877;DHT22;42341;40.498;72.818;2023-02-28T14:44:58;11.20;90.70
42877;DHT22;42341;40.498;72.818;2023-02-28T14:47:33;11.10;90.60
42877;DHT22;42341;40.498;72.818;2023-02-28T14:50:00;11.20;90.90
42877;DHT22;42341;40.498;72.818;2023-02-28T14:52:31;11.20;90.80
42877;DHT22;42341;40.498;72.818;2023-02-28T15:09:21;10.90;90.90
42877;DHT22;42341;40.498;72.818;2023-02-28T15:11:50;11.00;91.60
42877;DHT22;42341;40.498;72.818;2023-02-28T15:14:21;11.00;91.70
42877;DHT22;42341;40.498;72.818;2023-02-28T15:16:52;10.90;91.80
42877;DHT22;42341;40.498;72.818;2023-02-28T15:19:24;10.90;91.60
42877;DHT22;42341;40.498;72.818;2023-02-28T15:22:01;11.00;91.70
42877;DHT22;42341;40.498;72.818;2023-02-28T15:24:37;10.80;91.70
42877;DHT22;42341;40.498;72.818;2023-02-28T15:27:12;10.90;91.60
42877;DHT22;42341;40.498;72.818;2023-02-28T15:29:50;10.70;91.80
42877;DHT22;42341;40.498;72.818;2023-02-28T15:32:27;10.40;92.30
42877;DHT22;42341;40.498;72.818;2023-02-28T15:34:54;10.60;92.50
42877;DHT22;42341;40.498;72.818;2023-02-28T15:40:16;10.40;93.20
42877;DHT22;42341;40.498;72.818;2023-02-28T15:42:43;10.20;93.70
42877;DHT22;42341;40.498;72.818;2023-02-28T15:50:41;10.00;94.60
42877;DHT22;42341;40.498;72.818;2023-02-28T15:53:14;9.90;94.60
42877;DHT22;42341;40.498;72.818;2023-02-28T15:55:41;9.90;95.00
42877;DHT22;42341;40.498;72.818;2023-02-28T15:58:11;9.80;95.20
42877;DHT22;42341;40.498;72.818;2023-02-28T16:00:38;9.70;95.30
42877;DHT22;42341;40.498;72.818;2023-02-28T16:03:25;9.70;95.50
42877;DHT22;42341;40.498;72.818;2023-02-28T16:08:42;9.60;95.80
42877;DHT22;42341;40.498;72.818;2023-02-28T16:11:11;9.50;96.10
42877;DHT22;42341;40.498;72.818;2023-02-28T16:13:37;9.50;96.30
42877;DHT22;42341;40.498;72.818;2023-02-28T16:16:03;9.40;96.30
42877;DHT22;42341;40.498;72.818;2023-02-28T16:18:29;9.20;96.70
42877;DHT22;42341;40.498;72.818;2023-02-28T16:20:55;9.00;97.00
42877;DHT22;42341;40.498;72.818;2023-02-28T16:23:21;8.90;97.60
42877;DHT22;42341;40.498;72.818;2023-02-28T16:25:47;8.90;97.80
42877;DHT22;42341;40.498;72.818;2023-02-28T16:28:24;8.90;98.00
42877;DHT22;42341;40.498;72.818;2023-02-28T16:30:52;8.80;98.10
42877;DHT22;42341;40.498;72.818;2023-02-28T16:33:18;8.60;98.50
42877;DHT22;42341;40.498;72.818;2023-02-28T16:35:44;8.60;98.90
42877;DHT22;42341;40.498;72.818;2023-02-28T16:38:10;8.60;98.80
42877;DHT22;42341;40.498;72.818;2023-02-28T16:40:36;8.60;98.70
42877;DHT22;42341;40.498;72.818;2023-02-28T16:43:07;8.60;98.80
42877;DHT22;42341;40.498;72.818;2023-02-28T16:45:34;8.50;98.90
42877;DHT22;42341;40.498;72.818;2023-02-28T16:48:00;8.50;99.00
42877;DHT22;42341;40.498;72.818;2023-02-28T16:50:30;8.50;99.00
42877;DHT22;42341;40.498;72.818;2023-02-28T16:52:58;8.40;99.10
42877;DHT22;42341;40.498;72.818;2023-02-28T16:55:24;8.30;99.40
42877;DHT22;42341;40.498;72.818;2023-02-28T16:57:54;8.30;99.30
42877;DHT22;42341;40.498;72.818;2023-02-28T17:00:21;8.40;99.30
42877;DHT22;42341;40.498;72.818;2023-02-28T17:02:47;8.40;99.10
42877;DHT22;42341;40.498;72.818;2023-02-28T17:05:14;8.30;99.10
42877;DHT22;42341;40.498;72.818;2023-02-28T17:07:41;8.30;99.20
42877;DHT22;42341;40.498;72.818;2023-02-28T17:10:33;8.20;99.40
42877;DHT22;42341;40.498;72.818;2023-02-28T17:12:59;8.30;99.50
42877;DHT22;42341;40.498;72.818;2023-02-28T17:15:25;8.30;99.70
42877;DHT22;42341;40.498;72.818;2023-02-28T17:17:51;8.20;99.40
42877;DHT22;42341;40.498;72.818;2023-02-28T17:20:21;8.20;99.60
42877;DHT22;42341;40.498;72.818;2023-02-28T17:22:52;8.20;99.70
42877;DHT22;42341;40.498;72.818;2023-02-28T17:25:19;8.10;99.80
42877;DHT22;42341;40.498;72.818;2023-02-28T17:27:45;8.00;99.90
42877;DHT22;42341;40.498;72.818;2023-02-28T17:32:41;8.10;99.80
42877;DHT22;42341;40.498;72.818;2023-02-28T17:35:08;8.20;99.90
42877;DHT22;42341;40.498;72.818;2023-02-28T17:37:34;8.30;99.30
42877;DHT22;42341;40.498;72.818;2023-02-28T17:40:00;8.40;99.30
42877;DHT22;42341;40.498;72.818;2023-02-28T17:42:26;8.40;99.20
42877;DHT22;42341;40.498;72.818;2023-02-28T17:44:52;8.40;99.10
42877;DHT22;42341;40.498;72.818;2023-02-28T17:47:18;8.40;98.90
42877;DHT22;42341;40.498;72.818;2023-02-28T17:49:44;8.40;99.10
42877;DHT22;42341;40.498;72.818;2023-02-28T17:52:10;8.40;99.00
42877;DHT22;42341;40.498;72.818;2023-02-28T17:54:36;8.30;98.90
42877;DHT22;42341;40.498;72.818;2023-02-28T17:57:02;8.20;99.00
42877;DHT22;42341;40.498;72.818;2023-02-28T17:59:28;8.20;99.10
42877;DHT22;42341;40.498;72.818;2023-02-28T18:02:00;8.20;99.10
42877;DHT22;42341;40.498;72.818;2023-02-28T18:04:26;8.30;99.10
42877;DHT22;42341;40.498;72.818;2023-02-28T18:06:53;8.30;98.80
42877;DHT22;42341;40.498;72.818;2023-02-28T18:09:20;8.40;98.70
42877;DHT22;42341;40.498;72.818;2023-02-28T18:11:48;8.50;98.50
42877;DHT22;42341;40.498;72.818;2023-02-28T18:14:18;8.50;98.40
